sensor_id;sensor_type;location;lat;lon;timestamp;temperature;humidity
16160;DHT22;8185;57.818;15.224;2022-10-14T00:02:08;9.70;99.90
16160;DHT22;8185;57.818;15.224;2022-10-14T00:04:36;9.70;99.90
16160;DHT22;8185;57.818;15.224;2022-10-14T00:07:03;9.70;99.90
16160;DHT22;8185;57.818;15.224;2022-10-14T00:09:31;9.70;99.90
16160;DHT22;8185;57.818;15.224;2022-10-14T00:11:59;9.70;99.90
16160;DHT22;8185;57.818;15.224;2022-10-14T00:14:27;9.70;99.90
16160;DHT22;8185;57.818;15.224;2022-10-14T00:16:54;9.80;99.90
16160;DHT22;8185;57.818;15.224;2022-10-14T00:19:22;9.80;99.90
16160;DHT22;8185;57.818;15.224;2022-10-14T00:21:49;9.80;99.90
16160;DHT22;8185;57.818;15.224;2022-10-14T00:24:16;9.80;99.90
16160;DHT22;8185;57.818;15.224;2022-10-14T00:26:44;9.80;99.90
16160;DHT22;8185;57.818;15.224;2022-10-14T00:29:15;9.80;99.90
16160;DHT22;8185;57.818;15.224;2022-10-14T00:31:44;9.80;99.90
16160;DHT22;8185;57.818;15.224;2022-10-14T00:34:12;9.80;99.90
16160;DHT22;8185;57.818;15.224;2022-10-14T00:36:41;9.80;99.90
16160;DHT22;8185;57.818;15.224;2022-10-14T00:39:09;9.80;99.90
16160;DHT22;8185;57.818;15.224;2022-10-14T00:41:37;9.80;99.90
16160;DHT22;8185;57.818;15.224;2022-10-14T00:44:07;9.80;99.90
16160;DHT22;8185;57.818;15.224;2022-10-14T00:46:55;9.80;99.90
16160;DHT22;8185;57.818;15.224;2022-10-14T00:49:24;9.80;99.90
16160;DHT22;8185;57.818;15.224;2022-10-14T00:51:55;9.80;99.90
16160;DHT22;8185;57.818;15.224;2022-10-14T00:54:29;9.80;99.90
16160;DHT22;8185;57.818;15.224;2022-10-14T00:56:57;9.80;99.90
16160;DHT22;8185;57.818;15.224;2022-10-14T00:59:25;9.80;99.90
16160;DHT22;8185;57.818;15.224;2022-10-14T01:01:54;9.80;99.90
16160;DHT22;8185;57.818;15.224;2022-10-14T01:04:22;9.70;99.90
16160;DHT22;8185;57.818;15.224;2022-10-14T01:06:56;9.60;99.90
16160;DHT22;8185;57.818;15.224;2022-10-14T01:09:32;9.50;99.90
16160;DHT22;8185;57.818;15.224;2022-10-14T01:12:06;9.50;99.90
16160;DHT22;8185;57.818;15.224;2022-10-14T01:14:42;9.40;99.90
16160;DHT22;8185;57.818;15.224;2022-10-14T01:17:20;9.30;99.90
16160;DHT22;8185;57.818;15.224;2022-10-14T01:20:15;9.20;99.90
16160;DHT22;8185;57.818;15.224;2022-10-14T01:23:02;9.10;99.90
16160;DHT22;8185;57.818;15.224;2022-10-14T01:25:35;8.90;99.90
16160;DHT22;8185;57.818;15.224;2022-10-14T01:28:26;8.70;99.90
16160;DHT22;8185;57.818;15.224;2022-10-14T01:31:00;8.40;99.90
16160;DHT22;8185;57.818;15.224;2022-10-14T01:33:34;8.30;99.90
16160;DHT22;8185;57.818;15.224;2022-10-14T01:36:06;8.10;99.90
16160;DHT22;8185;57.818;15.224;2022-10-14T01:38:37;7.90;99.90
16160;DHT22;8185;57.818;15.224;2022-10-14T01:41:08;7.80;99.90
16160;DHT22;8185;57.818;15.224;2022-10-14T01:43:39;7.70;99.90
16160;DHT22;8185;57.818;15.224;2022-10-14T01:46:10;7.60;99.90
16160;DHT22;8185;57.818;15.224;2022-10-14T01:48:44;7.60;99.90
16160;DHT22;8185;57.818;15.224;2022-10-14T01:51:16;7.60;99.90
16160;DHT22;8185;57.818;15.224;2022-10-14T01:53:50;7.70;99.90
16160;DHT22;8185;57.818;15.224;2022-10-14T01:56:19;7.70;99.90
16160;DHT22;8185;57.818;15.224;2022-10-14T01:58:47;7.70;99.90
16160;DHT22;8185;57.818;15.224;2022-10-14T02:01:16;7.60;99.90
16160;DHT22;8185;57.818;15.224;2022-10-14T02:03:46;7.50;99.90
16160;DHT22;8185;57.818;15.224;2022-10-14T02:06:16;7.40;99.90
16160;DHT22;8185;57.818;15.224;2022-10-14T02:08:55;7.30;99.90
16160;DHT22;8185;57.818;15.224;2022-10-14T02:11:25;7.30;99.90
16160;DHT22;8185;57.818;15.224;2022-10-14T02:14:05;7.30;99.90
16160;DHT22;8185;57.818;15.224;2022-10-14T02:16:40;7.20;99.90
16160;DHT22;8185;57.818;15.224;2022-10-14T02:19:20;7.20;99.90
16160;DHT22;8185;57.818;15.224;2022-10-14T02:21:55;7.10;99.90
16160;DHT22;8185;57.818;15.224;2022-10-14T02:24:28;7.10;99.90
16160;DHT22;8185;57.818;15.224;2022-10-14T02:27:00;7.00;99.90
16160;DHT22;8185;57.818;15.224;2022-10-14T02:29:29;7.00;99.90
16160;DHT22;8185;57.818;15.224;2022-10-14T02:32:00;7.00;99.90
16160;DHT22;8185;57.818;15.224;2022-10-14T02:34:28;7.00;99.90
16160;DHT22;8185;57.818;15.224;2022-10-14T02:36:58;6.90;99.90
16160;DHT22;8185;57.818;15.224;2022-10-14T02:39:28;6.90;99.90
16160;DHT22;8185;57.818;15.224;2022-10-14T02:41:56;6.80;99.90
16160;DHT22;8185;57.818;15.224;2022-10-14T02:44:24;6.90;99.90
16160;DHT22;8185;57.818;15.224;2022-10-14T02:46:53;6.80;99.90
16160;DHT22;8185;57.818;15.224;2022-10-14T02:49:23;6.80;99.90
16160;DHT22;8185;57.818;15.224;2022-10-14T02:51:50;6.90;99.90
16160;DHT22;8185;57.818;15.224;2022-10-14T02:54:18;6.90;99.90
16160;DHT22;8185;57.818;15.224;2022-10-14T02:56:45;6.80;99.90
16160;DHT22;8185;57.818;15.224;2022-10-14T02:59:12;6.80;99.90
16160;DHT22;8185;57.818;15.224;2022-10-14T03:01:40;6.90;99.90
16160;DHT22;8185;57.818;15.224;2022-10-14T03:04:07;7.00;99.90
16160;DHT22;8185;57.818;15.224;2022-10-14T03:06:36;7.10;99.90
16160;DHT22;8185;57.818;15.224;2022-10-14T03:09:03;7.20;99.90
16160;DHT22;8185;57.818;15.224;2022-10-14T03:11:31;7.20;99.90
16160;DHT22;8185;57.818;15.224;2022-10-14T03:13:58;7.20;99.90
16160;DHT22;8185;57.818;15.224;2022-10-14T03:16:25;7.30;99.90
16160;DHT22;8185;57.818;15.224;2022-10-14T03:18:53;7.30;99.90
16160;DHT22;8185;57.818;15.224;2022-10-14T03:21:20;7.40;99.90
16160;DHT22;8185;57.818;15.224;2022-10-14T03:23:49;7.50;99.90
16160;DHT22;8185;57.818;15.224;2022-10-14T03:26:17;7.70;99.90
16160;DHT22;8185;57.818;15.224;2022-10-14T03:28:44;7.80;99.90
16160;DHT22;8185;57.818;15.224;2022-10-14T03:31:12;7.90;99.90
16160;DHT22;8185;57.818;15.224;2022-10-14T03:33:39;7.90;99.90
16160;DHT22;8185;57.818;15.224;2022-10-14T03:36:07;7.90;99.90
16160;DHT22;8185;57.818;15.224;2022-10-14T03:38:35;7.90;99.90
16160;DHT22;8185;57.818;15.224;2022-10-14T03:41:04;7.90;99.90
16160;DHT22;8185;57.818;15.224;2022-10-14T03:43:31;8.00;99.90
16160;DHT22;8185;57.818;15.224;2022-10-14T03:45:58;8.00;99.90
16160;DHT22;8185;57.818;15.224;2022-10-14T03:48:26;8.00;99.90
16160;DHT22;8185;57.818;15.224;2022-10-14T03:50:53;8.00;99.90
16160;DHT22;8185;57.818;15.224;2022-10-14T03:53:21;8.10;99.90
16160;DHT22;8185;57.818;15.224;2022-10-14T03:55:48;8.10;99.90
16160;DHT22;8185;57.818;15.224;2022-10-14T03:58:17;8.00;99.90
16160;DHT22;8185;57.818;15.224;2022-10-14T04:00:44;8.00;99.90
16160;DHT22;8185;57.818;15.224;2022-10-14T04:03:11;8.00;99.90
16160;DHT22;8185;57.818;15.224;2022-10-14T04:05:39;8.00;99.90
16160;DHT22;8185;57.818;15.224;2022-10-14T04:08:06;8.00;99.90
16160;DHT22;8185;57.818;15.224;2022-10-14T04:10:33;8.00;99.90
16160;DHT22;8185;57.818;15.224;2022-10-14T04:13:01;8.00;99.90
16160;DHT22;8185;57.818;15.224;2022-10-14T04:15:30;7.90;99.90
16160;DHT22;8185;57.818;15.224;2022-10-14T04:17:57;7.90;99.90
16160;DHT22;8185;57.818;15.224;2022-10-14T04:20:24;8.00;99.90
16160;DHT22;8185;57.818;15.224;2022-10-14T04:22:52;8.10;99.90
16160;DHT22;8185;57.818;15.224;2022-10-14T04:25:19;8.10;99.90
16160;DHT22;8185;57.818;15.224;2022-10-14T04:27:46;8.20;99.90
16160;DHT22;8185;57.818;15.224;2022-10-14T04:30:14;8.20;99.90
16160;DHT22;8185;57.818;15.224;2022-10-14T04:32:43;8.20;99.90
16160;DHT22;8185;57.818;15.224;2022-10-14T04:35:11;8.20;99.90
16160;DHT22;8185;57.818;15.224;2022-10-14T04:37:38;8.20;99.90
16160;DHT22;8185;57.818;15.224;2022-10-14T04:40:06;8.20;99.90
16160;DHT22;8185;57.818;15.224;2022-10-14T04:42:34;8.30;99.90
16160;DHT22;8185;57.818;15.224;2022-10-14T04:45:01;8.30;99.90
16160;DHT22;8185;57.818;15.224;2022-10-14T04:47:29;8.30;99.90
16160;DHT22;8185;57.818;15.224;2022-10-14T04:49:58;8.20;99.90
16160;DHT22;8185;57.818;15.224;2022-10-14T04:52:25;8.10;99.90
16160;DHT22;8185;57.818;15.224;2022-10-14T04:54:52;8.00;99.90
16160;DHT22;8185;57.818;15.224;2022-10-14T04:57:20;7.80;99.90
16160;DHT22;8185;57.818;15.224;2022-10-14T04:59:47;7.70;99.90
16160;DHT22;8185;57.818;15.224;2022-10-14T05:02:15;7.60;99.90
16160;DHT22;8185;57.818;15.224;2022-10-14T05:04:42;7.50;99.90
16160;DHT22;8185;57.818;15.224;2022-10-14T05:07:11;7.50;99.90
16160;DHT22;8185;57.818;15.224;2022-10-14T05:09:38;7.60;99.90
16160;DHT22;8185;57.818;15.224;2022-10-14T05:12:06;7.60;99.90
16160;DHT22;8185;57.818;15.224;2022-10-14T05:14:33;7.70;99.90
16160;DHT22;8185;57.818;15.224;2022-10-14T05:17:01;7.70;99.90
16160;DHT22;8185;57.818;15.224;2022-10-14T05:19:28;7.60;99.90
16160;DHT22;8185;57.818;15.224;2022-10-14T05:21:55;7.50;99.90
16160;DHT22;8185;57.818;15.224;2022-10-14T05:24:24;7.50;99.90
16160;DHT22;8185;57.818;15.224;2022-10-14T05:26:52;7.40;99.90
16160;DHT22;8185;57.818;15.224;2022-10-14T05:29:19;7.40;99.90
16160;DHT22;8185;57.818;15.224;2022-10-14T05:31:46;7.40;99.90
16160;DHT22;8185;57.818;15.224;2022-10-14T05:34:14;7.50;99.90
16160;DHT22;8185;57.818;15.224;2022-10-14T05:36:41;7.50;99.90
16160;DHT22;8185;57.818;15.224;2022-10-14T05:39:09;7.60;99.90
16160;DHT22;8185;57.818;15.224;2022-10-14T05:41:38;7.70;99.90
16160;DHT22;8185;57.818;15.224;2022-10-14T05:44:05;7.90;99.90
16160;DHT22;8185;57.818;15.224;2022-10-14T05:46:33;7.90;99.90
16160;DHT22;8185;57.818;15.224;2022-10-14T05:49:00;8.00;99.90
16160;DHT22;8185;57.818;15.224;2022-10-14T05:51:30;8.10;99.90
16160;DHT22;8185;57.818;15.224;2022-10-14T05:53:58;8.20;99.90
16160;DHT22;8185;57.818;15.224;2022-10-14T05:56:25;8.30;99.90
16160;DHT22;8185;57.818;15.224;2022-10-14T05:58:54;8.30;99.90
16160;DHT22;8185;57.818;15.224;2022-10-14T06:01:22;8.40;99.90
16160;DHT22;8185;57.818;15.224;2022-10-14T06:03:50;8.40;99.90
16160;DHT22;8185;57.818;15.224;2022-10-14T06:06:18;8.50;99.90
16160;DHT22;8185;57.818;15.224;2022-10-14T06:08:45;8.50;99.90
16160;DHT22;8185;57.818;15.224;2022-10-14T06:11:12;8.50;99.90
16160;DHT22;8185;57.818;15.224;2022-10-14T06:13:40;8.60;99.90
16160;DHT22;8185;57.818;15.224;2022-10-14T06:16:09;8.60;99.90
16160;DHT22;8185;57.818;15.224;2022-10-14T06:18:37;8.60;99.90
16160;DHT22;8185;57.818;15.224;2022-10-14T06:21:05;8.70;99.90
16160;DHT22;8185;57.818;15.224;2022-10-14T06:23:33;8.70;99.90
16160;DHT22;8185;57.818;15.224;2022-10-14T06:26:03;8.80;99.90
16160;DHT22;8185;57.818;15.224;2022-10-14T06:28:31;8.80;99.90
16160;DHT22;8185;57.818;15.224;2022-10-14T06:30:58;8.90;99.90
16160;DHT22;8185;57.818;15.224;2022-10-14T06:33:27;8.90;99.90
16160;DHT22;8185;57.818;15.224;2022-10-14T06:35:55;9.00;99.90
16160;DHT22;8185;57.818;15.224;2022-10-14T06:38:23;9.00;99.90
16160;DHT22;8185;57.818;15.224;2022-10-14T06:40:50;9.00;99.90
16160;DHT22;8185;57.818;15.224;2022-10-14T06:43:18;9.10;99.90
16160;DHT22;8185;57.818;15.224;2022-10-14T06:45:45;9.10;99.90
16160;DHT22;8185;57.818;15.224;2022-10-14T06:48:13;9.10;99.90
16160;DHT22;8185;57.818;15.224;2022-10-14T06:50:42;9.20;99.90
16160;DHT22;8185;57.818;15.224;2022-10-14T06:53:09;9.20;99.90
16160;DHT22;8185;57.818;15.224;2022-10-14T06:55:37;9.20;99.90
16160;DHT22;8185;57.818;15.224;2022-10-14T06:58:04;9.20;99.90
16160;DHT22;8185;57.818;15.224;2022-10-14T07:00:31;9.20;99.90
16160;DHT22;8185;57.818;15.224;2022-10-14T07:02:59;9.30;99.90
16160;DHT22;8185;57.818;15.224;2022-10-14T07:05:26;9.30;99.90
16160;DHT22;8185;57.818;15.224;2022-10-14T07:07:56;9.30;99.90
16160;DHT22;8185;57.818;15.224;2022-10-14T07:10:23;9.40;99.90
16160;DHT22;8185;57.818;15.224;2022-10-14T07:12:52;9.50;99.90
16160;DHT22;8185;57.818;15.224;2022-10-14T07:15:21;9.50;99.90
16160;DHT22;8185;57.818;15.224;2022-10-14T07:17:48;9.60;99.90
16160;DHT22;8185;57.818;15.224;2022-10-14T07:20:15;9.60;99.90
16160;DHT22;8185;57.818;15.224;2022-10-14T07:22:43;9.70;99.90
16160;DHT22;8185;57.818;15.224;2022-10-14T07:25:12;9.70;99.90
16160;DHT22;8185;57.818;15.224;2022-10-14T07:27:39;9.80;99.90
16160;DHT22;8185;57.818;15.224;2022-10-14T07:30:07;9.90;99.90
16160;DHT22;8185;57.818;15.224;2022-10-14T07:32:35;10.00;99.90
16160;DHT22;8185;57.818;15.224;2022-10-14T07:35:03;9.90;99.90
16160;DHT22;8185;57.818;15.224;2022-10-14T07:37:31;10.00;99.90
16160;DHT22;8185;57.818;15.224;2022-10-14T07:39:58;10.10;99.90
16160;DHT22;8185;57.818;15.224;2022-10-14T07:42:27;10.10;99.90
16160;DHT22;8185;57.818;15.224;2022-10-14T07:44:54;10.10;99.90
16160;DHT22;8185;57.818;15.224;2022-10-14T07:47:22;10.10;99.90
16160;DHT22;8185;57.818;15.224;2022-10-14T07:49:50;10.10;99.90
16160;DHT22;8185;57.818;15.224;2022-10-14T07:52:17;10.10;99.90
16160;DHT22;8185;57.818;15.224;2022-10-14T07:54:45;10.20;99.90
16160;DHT22;8185;57.818;15.224;2022-10-14T07:57:12;10.20;99.90
16160;DHT22;8185;57.818;15.224;2022-10-14T07:59:41;10.20;99.90
16160;DHT22;8185;57.818;15.224;2022-10-14T08:02:10;10.20;99.90
16160;DHT22;8185;57.818;15.224;2022-10-14T08:04:38;10.20;99.90
16160;DHT22;8185;57.818;15.224;2022-10-14T08:07:05;10.20;99.90
16160;DHT22;8185;57.818;15.224;2022-10-14T08:09:34;10.20;99.90
16160;DHT22;8185;57.818;15.224;2022-10-14T08:12:02;10.30;99.90
16160;DHT22;8185;57.818;15.224;2022-10-14T08:14:29;10.20;99.90
16160;DHT22;8185;57.818;15.224;2022-10-14T08:16:58;10.30;99.90
16160;DHT22;8185;57.818;15.224;2022-10-14T08:19:25;10.30;99.90
16160;DHT22;8185;57.818;15.224;2022-10-14T08:21:53;10.40;99.90
16160;DHT22;8185;57.818;15.224;2022-10-14T08:24:20;10.40;99.90
16160;DHT22;8185;57.818;15.224;2022-10-14T08:26:49;10.30;99.90
16160;DHT22;8185;57.818;15.224;2022-10-14T08:29:18;10.30;99.90
16160;DHT22;8185;57.818;15.224;2022-10-14T08:31:47;10.30;99.90
16160;DHT22;8185;57.818;15.224;2022-10-14T08:34:16;10.40;99.90
16160;DHT22;8185;57.818;15.224;2022-10-14T08:36:46;10.40;99.90
16160;DHT22;8185;57.818;15.224;2022-10-14T08:39:16;10.40;99.90
16160;DHT22;8185;57.818;15.224;2022-10-14T08:41:57;10.50;99.90
16160;DHT22;8185;57.818;15.224;2022-10-14T08:44:39;10.60;99.90
16160;DHT22;8185;57.818;15.224;2022-10-14T08:47:10;10.60;99.90
16160;DHT22;8185;57.818;15.224;2022-10-14T08:49:51;10.80;99.90
16160;DHT22;8185;57.818;15.224;2022-10-14T08:52:24;10.80;99.90
16160;DHT22;8185;57.818;15.224;2022-10-14T08:54:56;10.80;99.90
16160;DHT22;8185;57.818;15.224;2022-10-14T08:57:27;10.90;99.90
16160;DHT22;8185;57.818;15.224;2022-10-14T08:59:57;10.90;99.90
16160;DHT22;8185;57.818;15.224;2022-10-14T09:02:33;11.00;99.90
16160;DHT22;8185;57.818;15.224;2022-10-14T09:05:05;11.10;99.90
16160;DHT22;8185;57.818;15.224;2022-10-14T09:07:35;11.20;99.90
16160;DHT22;8185;57.818;15.224;2022-10-14T09:10:05;11.30;99.90
16160;DHT22;8185;57.818;15.224;2022-10-14T09:12:35;11.40;99.90
16160;DHT22;8185;57.818;15.224;2022-10-14T09:15:10;11.50;99.90
16160;DHT22;8185;57.818;15.224;2022-10-14T09:17:42;11.40;99.90
16160;DHT22;8185;57.818;15.224;2022-10-14T09:20:21;11.60;99.90
16160;DHT22;8185;57.818;15.224;2022-10-14T09:22:58;11.90;99.90
16160;DHT22;8185;57.818;15.224;2022-10-14T09:25:29;11.80;99.90
16160;DHT22;8185;57.818;15.224;2022-10-14T09:27:58;11.60;99.90
16160;DHT22;8185;57.818;15.224;2022-10-14T09:30:28;11.70;99.90
16160;DHT22;8185;57.818;15.224;2022-10-14T09:32:56;11.80;99.90
16160;DHT22;8185;57.818;15.224;2022-10-14T09:35:29;11.90;99.90
16160;DHT22;8185;57.818;15.224;2022-10-14T09:37:57;12.00;99.90
16160;DHT22;8185;57.818;15.224;2022-10-14T09:40:29;12.00;99.90
16160;DHT22;8185;57.818;15.224;2022-10-14T09:43:00;12.30;99.90
16160;DHT22;8185;57.818;15.224;2022-10-14T09:45:43;12.40;99.90
16160;DHT22;8185;57.818;15.224;2022-10-14T09:48:15;12.50;99.90
16160;DHT22;8185;57.818;15.224;2022-10-14T09:50:49;12.70;99.90
16160;DHT22;8185;57.818;15.224;2022-10-14T09:53:20;12.60;99.90
16160;DHT22;8185;57.818;15.224;2022-10-14T09:55:53;12.60;99.90
16160;DHT22;8185;57.818;15.224;2022-10-14T09:58:28;12.50;99.90
16160;DHT22;8185;57.818;15.224;2022-10-14T10:00:57;12.60;99.90
16160;DHT22;8185;57.818;15.224;2022-10-14T10:03:27;12.70;99.90
16160;DHT22;8185;57.818;15.224;2022-10-14T10:06:07;12.60;99.90
16160;DHT22;8185;57.818;15.224;2022-10-14T10:08:35;12.60;99.90
16160;DHT22;8185;57.818;15.224;2022-10-14T10:11:05;12.40;99.90
16160;DHT22;8185;57.818;15.224;2022-10-14T10:13:40;12.30;99.90
16160;DHT22;8185;57.818;15.224;2022-10-14T10:16:21;12.30;99.90
16160;DHT22;8185;57.818;15.224;2022-10-14T10:18:49;12.40;99.90
16160;DHT22;8185;57.818;15.224;2022-10-14T10:21:22;12.50;99.90
16160;DHT22;8185;57.818;15.224;2022-10-14T10:23:53;12.70;99.90
16160;DHT22;8185;57.818;15.224;2022-10-14T10:26:23;12.70;99.90
16160;DHT22;8185;57.818;15.224;2022-10-14T10:28:53;12.70;99.90
16160;DHT22;8185;57.818;15.224;2022-10-14T10:31:55;12.40;99.90
16160;DHT22;8185;57.818;15.224;2022-10-14T10:34:56;12.30;99.90
16160;DHT22;8185;57.818;15.224;2022-10-14T10:37:30;12.30;99.90
16160;DHT22;8185;57.818;15.224;2022-10-14T10:40:16;12.20;99.90
16160;DHT22;8185;57.818;15.224;2022-10-14T10:42:55;12.20;99.90
16160;DHT22;8185;57.818;15.224;2022-10-14T10:45:33;12.10;99.90
16160;DHT22;8185;57.818;15.224;2022-10-14T10:48:11;12.00;99.90
16160;DHT22;8185;57.818;15.224;2022-10-14T10:50:47;12.10;99.90
16160;DHT22;8185;57.818;15.224;2022-10-14T10:53:52;12.10;99.90
16160;DHT22;8185;57.818;15.224;2022-10-14T10:56:31;12.00;99.90
16160;DHT22;8185;57.818;15.224;2022-10-14T10:59:27;11.90;99.90
16160;DHT22;8185;57.818;15.224;2022-10-14T11:02:20;12.00;99.90
16160;DHT22;8185;57.818;15.224;2022-10-14T11:04:56;11.90;99.90
16160;DHT22;8185;57.818;15.224;2022-10-14T11:07:35;12.00;99.90
16160;DHT22;8185;57.818;15.224;2022-10-14T11:10:29;12.00;99.90
16160;DHT22;8185;57.818;15.224;2022-10-14T11:13:25;11.90;99.90
16160;DHT22;8185;57.818;15.224;2022-10-14T11:15:58;11.90;99.90
16160;DHT22;8185;57.818;15.224;2022-10-14T11:18:35;12.00;99.90
16160;DHT22;8185;57.818;15.224;2022-10-14T11:21:14;11.90;99.90
16160;DHT22;8185;57.818;15.224;2022-10-14T11:23:51;11.90;99.90
16160;DHT22;8185;57.818;15.224;2022-10-14T11:29:31;12.00;99.90
16160;DHT22;8185;57.818;15.224;2022-10-14T11:32:06;12.00;99.90
16160;DHT22;8185;57.818;15.224;2022-10-14T11:34:41;12.10;99.90
16160;DHT22;8185;57.818;15.224;2022-10-14T11:37:19;12.10;99.90
16160;DHT22;8185;57.818;15.224;2022-10-14T11:39:56;12.10;99.90
16160;DHT22;8185;57.818;15.224;2022-10-14T11:42:39;12.20;99.90
16160;DHT22;8185;57.818;15.224;2022-10-14T11:45:27;12.10;99.90
16160;DHT22;8185;57.818;15.224;2022-10-14T11:48:04;12.10;99.90
16160;DHT22;8185;57.818;15.224;2022-10-14T11:50:38;12.00;99.90
16160;DHT22;8185;57.818;15.224;2022-10-14T11:53:10;12.00;99.90
16160;DHT22;8185;57.818;15.224;2022-10-14T11:55:41;11.90;99.90
16160;DHT22;8185;57.818;15.224;2022-10-14T11:58:14;12.10;99.90
16160;DHT22;8185;57.818;15.224;2022-10-14T12:00:44;12.10;99.90
16160;DHT22;8185;57.818;15.224;2022-10-14T12:03:22;12.10;99.90
16160;DHT22;8185;57.818;15.224;2022-10-14T12:05:57;12.10;99.90
16160;DHT22;8185;57.818;15.224;2022-10-14T12:08:31;12.00;99.90
16160;DHT22;8185;57.818;15.224;2022-10-14T12:11:02;11.90;99.90
16160;DHT22;8185;57.818;15.224;2022-10-14T12:13:37;11.80;99.90
16160;DHT22;8185;57.818;15.224;2022-10-14T12:16:12;11.70;99.90
16160;DHT22;8185;57.818;15.224;2022-10-14T12:18:41;11.70;99.90
16160;DHT22;8185;57.818;15.224;2022-10-14T12:21:16;11.50;99.90
16160;DHT22;8185;57.818;15.224;2022-10-14T12:23:47;11.50;99.90
16160;DHT22;8185;57.818;15.224;2022-10-14T12:26:33;11.40;99.90
16160;DHT22;8185;57.818;15.224;2022-10-14T12:29:06;11.40;99.90
16160;DHT22;8185;57.818;15.224;2022-10-14T12:31:37;11.40;99.90
16160;DHT22;8185;57.818;15.224;2022-10-14T12:34:29;11.40;99.90
16160;DHT22;8185;57.818;15.224;2022-10-14T12:36:57;11.40;99.90
16160;DHT22;8185;57.818;15.224;2022-10-14T12:39:33;11.30;99.90
16160;DHT22;8185;57.818;15.224;2022-10-14T12:42:08;11.30;99.90
16160;DHT22;8185;57.818;15.224;2022-10-14T12:44:44;11.30;99.90
16160;DHT22;8185;57.818;15.224;2022-10-14T12:47:18;11.30;99.90
16160;DHT22;8185;57.818;15.224;2022-10-14T12:49:49;11.30;99.90
16160;DHT22;8185;57.818;15.224;2022-10-14T12:52:21;11.30;99.90
16160;DHT22;8185;57.818;15.224;2022-10-14T12:54:50;11.30;99.90
16160;DHT22;8185;57.818;15.224;2022-10-14T12:57:25;11.30;99.90
16160;DHT22;8185;57.818;15.224;2022-10-14T12:59:56;11.40;99.90
16160;DHT22;8185;57.818;15.224;2022-10-14T13:02:29;11.40;99.90
16160;DHT22;8185;57.818;15.224;2022-10-14T13:05:03;11.50;99.90
16160;DHT22;8185;57.818;15.224;2022-10-14T13:07:42;11.50;99.90
16160;DHT22;8185;57.818;15.224;2022-10-14T13:13:48;11.80;99.90
16160;DHT22;8185;57.818;15.224;2022-10-14T13:19:44;11.80;99.90
16160;DHT22;8185;57.818;15.224;2022-10-14T13:22:41;11.80;99.90
16160;DHT22;8185;57.818;15.224;2022-10-14T13:25:14;11.80;99.90
16160;DHT22;8185;57.818;15.224;2022-10-14T13:28:01;11.80;99.90
16160;DHT22;8185;57.818;15.224;2022-10-14T13:30:36;11.90;99.90
16160;DHT22;8185;57.818;15.224;2022-10-14T13:33:14;12.00;99.90
16160;DHT22;8185;57.818;15.224;2022-10-14T13:35:54;12.00;99.90
16160;DHT22;8185;57.818;15.224;2022-10-14T13:38:25;12.20;99.90
16160;DHT22;8185;57.818;15.224;2022-10-14T13:40:53;12.40;99.90
16160;DHT22;8185;57.818;15.224;2022-10-14T13:43:25;12.70;99.90
16160;DHT22;8185;57.818;15.224;2022-10-14T13:45:57;13.00;99.90
16160;DHT22;8185;57.818;15.224;2022-10-14T13:48:31;13.50;99.90
16160;DHT22;8185;57.818;15.224;2022-10-14T13:53:53;13.90;99.90
16160;DHT22;8185;57.818;15.224;2022-10-14T13:56:22;14.00;99.90
16160;DHT22;8185;57.818;15.224;2022-10-14T13:58:50;14.10;99.90
16160;DHT22;8185;57.818;15.224;2022-10-14T14:01:19;14.20;99.90
16160;DHT22;8185;57.818;15.224;2022-10-14T14:03:51;14.40;99.90
16160;DHT22;8185;57.818;15.224;2022-10-14T14:06:22;14.30;99.90
16160;DHT22;8185;57.818;15.224;2022-10-14T14:08:53;14.00;99.90
16160;DHT22;8185;57.818;15.224;2022-10-14T14:11:23;13.90;99.90
16160;DHT22;8185;57.818;15.224;2022-10-14T14:13:55;13.60;99.90
16160;DHT22;8185;57.818;15.224;2022-10-14T14:16:24;13.30;99.90
16160;DHT22;8185;57.818;15.224;2022-10-14T14:18:53;13.40;99.90
16160;DHT22;8185;57.818;15.224;2022-10-14T14:21:24;14.20;99.90
16160;DHT22;8185;57.818;15.224;2022-10-14T14:23:54;14.00;99.90
16160;DHT22;8185;57.818;15.224;2022-10-14T14:26:26;13.80;99.90
16160;DHT22;8185;57.818;15.224;2022-10-14T14:28:55;13.60;99.90
16160;DHT22;8185;57.818;15.224;2022-10-14T14:31:25;13.50;99.90
16160;DHT22;8185;57.818;15.224;2022-10-14T14:33:57;13.30;99.90
16160;DHT22;8185;57.818;15.224;2022-10-14T14:36:29;13.10;99.90
16160;DHT22;8185;57.818;15.224;2022-10-14T14:38:57;13.40;99.90
16160;DHT22;8185;57.818;15.224;2022-10-14T14:41:27;13.70;99.90
16160;DHT22;8185;57.818;15.224;2022-10-14T14:43:57;15.40;99.90
16160;DHT22;8185;57.818;15.224;2022-10-14T14:46:30;17.10;99.90
16160;DHT22;8185;57.818;15.224;2022-10-14T14:48:58;17.90;99.90
16160;DHT22;8185;57.818;15.224;2022-10-14T14:51:32;18.60;99.90
16160;DHT22;8185;57.818;15.224;2022-10-14T14:54:00;17.50;99.90
16160;DHT22;8185;57.818;15.224;2022-10-14T14:56:30;15.90;99.90
16160;DHT22;8185;57.818;15.224;2022-10-14T14:59:05;15.40;99.90
16160;DHT22;8185;57.818;15.224;2022-10-14T15:01:33;14.60;99.90
16160;DHT22;8185;57.818;15.224;2022-10-14T15:04:03;13.90;99.90
16160;DHT22;8185;57.818;15.224;2022-10-14T15:06:33;14.90;99.90
16160;DHT22;8185;57.818;15.224;2022-10-14T15:09:09;14.20;99.90
16160;DHT22;8185;57.818;15.224;2022-10-14T15:11:47;13.60;99.90
16160;DHT22;8185;57.818;15.224;2022-10-14T15:14:27;13.20;99.90
16160;DHT22;8185;57.818;15.224;2022-10-14T15:16:55;12.80;99.90
16160;DHT22;8185;57.818;15.224;2022-10-14T15:19:28;12.50;99.90
16160;DHT22;8185;57.818;15.224;2022-10-14T15:22:19;12.20;99.90
16160;DHT22;8185;57.818;15.224;2022-10-14T15:24:58;12.10;99.90
16160;DHT22;8185;57.818;15.224;2022-10-14T15:27:46;11.90;99.90
16160;DHT22;8185;57.818;15.224;2022-10-14T15:30:47;11.80;99.90
16160;DHT22;8185;57.818;15.224;2022-10-14T15:33:19;11.60;99.90
16160;DHT22;8185;57.818;15.224;2022-10-14T15:35:54;11.50;99.90
16160;DHT22;8185;57.818;15.224;2022-10-14T15:38:24;11.40;99.90
16160;DHT22;8185;57.818;15.224;2022-10-14T15:40:52;11.30;99.90
16160;DHT22;8185;57.818;15.224;2022-10-14T15:43:21;11.10;99.90
16160;DHT22;8185;57.818;15.224;2022-10-14T15:45:50;11.00;99.90
16160;DHT22;8185;57.818;15.224;2022-10-14T15:48:39;10.90;99.90
16160;DHT22;8185;57.818;15.224;2022-10-14T15:51:13;10.90;99.90
16160;DHT22;8185;57.818;15.224;2022-10-14T15:53:43;10.90;99.90
16160;DHT22;8185;57.818;15.224;2022-10-14T15:56:10;10.90;99.90
16160;DHT22;8185;57.818;15.224;2022-10-14T15:58:37;10.90;99.90
16160;DHT22;8185;57.818;15.224;2022-10-14T16:01:05;10.80;99.90
16160;DHT22;8185;57.818;15.224;2022-10-14T16:03:33;10.80;99.90
16160;DHT22;8185;57.818;15.224;2022-10-14T16:06:00;10.80;99.90
16160;DHT22;8185;57.818;15.224;2022-10-14T16:08:28;10.70;99.90
16160;DHT22;8185;57.818;15.224;2022-10-14T16:10:57;10.70;99.90
16160;DHT22;8185;57.818;15.224;2022-10-14T16:13:24;10.70;99.90
16160;DHT22;8185;57.818;15.224;2022-10-14T16:15:54;10.70;99.90
16160;DHT22;8185;57.818;15.224;2022-10-14T16:18:22;10.70;99.90